sensor_id;sensor_type;location;lat;lon;timestamp;P1;durP1;ratioP1;P2;durP2;ratioP2
72060;SDS011;59925;52.136;5.420;2024-02-14T00:00:43;5.80;;;3.43;;
72060;SDS011;59925;52.136;5.420;2024-02-14T00:03:10;7.07;;;3.70;;
72060;SDS011;59925;52.136;5.420;2024-02-14T00:05:37;5.95;;;3.45;;
72060;SDS011;59925;52.136;5.420;2024-02-14T00:08:03;5.15;;;3.83;;
72060;SDS011;59925;52.136;5.420;2024-02-14T00:10:31;5.85;;;3.65;;
72060;SDS011;59925;52.136;5.420;2024-02-14T00:12:57;6.50;;;4.10;;
72060;SDS011;59925;52.136;5.420;2024-02-14T00:15:25;5.10;;;3.70;;
72060;SDS011;59925;52.136;5.420;2024-02-14T00:17:52;4.85;;;3.40;;
72060;SDS011;59925;52.136;5.420;2024-02-14T00:20:19;4.57;;;2.90;;
72060;SDS011;59925;52.136;5.420;2024-02-14T00:22:46;6.28;;;4.13;;
72060;SDS011;59925;52.136;5.420;2024-02-14T00:25:13;5.70;;;3.70;;
72060;SDS011;59925;52.136;5.420;2024-02-14T00:27:43;5.68;;;4.07;;
72060;SDS011;59925;52.136;5.420;2024-02-14T00:30:10;6.38;;;3.97;;
72060;SDS011;59925;52.136;5.420;2024-02-14T00:32:37;6.50;;;4.15;;
72060;SDS011;59925;52.136;5.420;2024-02-14T00:35:04;4.80;;;3.80;;
72060;SDS011;59925;52.136;5.420;2024-02-14T00:37:31;7.07;;;5.20;;
72060;SDS011;59925;52.136;5.420;2024-02-14T00:39:59;6.15;;;4.38;;
72060;SDS011;59925;52.136;5.420;2024-02-14T00:42:26;7.18;;;4.60;;
72060;SDS011;59925;52.136;5.420;2024-02-14T00:44:53;9.10;;;4.68;;
72060;SDS011;59925;52.136;5.420;2024-02-14T00:47:20;7.60;;;4.70;;
72060;SDS011;59925;52.136;5.420;2024-02-14T00:49:46;8.00;;;5.10;;
72060;SDS011;59925;52.136;5.420;2024-02-14T00:52:13;6.93;;;5.05;;
72060;SDS011;59925;52.136;5.420;2024-02-14T00:54:40;6.28;;;4.20;;
72060;SDS011;59925;52.136;5.420;2024-02-14T00:57:07;7.05;;;4.70;;
72060;SDS011;59925;52.136;5.420;2024-02-14T00:59:33;6.68;;;4.60;;
72060;SDS011;59925;52.136;5.420;2024-02-14T01:02:00;7.60;;;5.30;;
72060;SDS011;59925;52.136;5.420;2024-02-14T01:04:26;9.07;;;5.63;;
72060;SDS011;59925;52.136;5.420;2024-02-14T01:06:53;7.90;;;5.78;;
72060;SDS011;59925;52.136;5.420;2024-02-14T01:09:20;14.48;;;6.72;;
72060;SDS011;59925;52.136;5.420;2024-02-14T01:11:46;9.20;;;6.13;;
72060;SDS011;59925;52.136;5.420;2024-02-14T01:14:15;9.87;;;5.53;;
72060;SDS011;59925;52.136;5.420;2024-02-14T01:16:45;8.45;;;6.00;;
72060;SDS011;59925;52.136;5.420;2024-02-14T01:19:11;11.27;;;6.47;;
72060;SDS011;59925;52.136;5.420;2024-02-14T01:21:38;8.75;;;5.80;;
72060;SDS011;59925;52.136;5.420;2024-02-14T01:24:05;10.88;;;6.22;;
72060;SDS011;59925;52.136;5.420;2024-02-14T01:26:32;7.50;;;5.97;;
72060;SDS011;59925;52.136;5.420;2024-02-14T01:28:58;14.00;;;7.53;;
72060;SDS011;59925;52.136;5.420;2024-02-14T01:31:27;9.23;;;5.78;;
72060;SDS011;59925;52.136;5.420;2024-02-14T01:33:53;11.82;;;7.05;;
72060;SDS011;59925;52.136;5.420;2024-02-14T01:36:21;10.02;;;6.40;;
72060;SDS011;59925;52.136;5.420;2024-02-14T01:38:48;10.07;;;6.53;;
72060;SDS011;59925;52.136;5.420;2024-02-14T01:41:15;10.32;;;6.63;;
72060;SDS011;59925;52.136;5.420;2024-02-14T01:43:41;8.50;;;5.97;;
72060;SDS011;59925;52.136;5.420;2024-02-14T01:46:08;9.10;;;6.10;;
72060;SDS011;59925;52.136;5.420;2024-02-14T01:48:35;7.97;;;5.95;;
72060;SDS011;59925;52.136;5.420;2024-02-14T01:51:02;8.37;;;6.50;;
72060;SDS011;59925;52.136;5.420;2024-02-14T01:53:31;10.60;;;6.57;;
72060;SDS011;59925;52.136;5.420;2024-02-14T01:55:58;9.70;;;6.30;;
72060;SDS011;59925;52.136;5.420;2024-02-14T01:58:26;9.77;;;7.00;;
72060;SDS011;59925;52.136;5.420;2024-02-14T02:00:54;11.50;;;6.40;;
72060;SDS011;59925;52.136;5.420;2024-02-14T02:03:25;11.00;;;6.57;;
72060;SDS011;59925;52.136;5.420;2024-02-14T02:05:53;11.20;;;6.70;;
72060;SDS011;59925;52.136;5.420;2024-02-14T02:08:20;12.52;;;7.28;;
72060;SDS011;59925;52.136;5.420;2024-02-14T02:10:48;11.18;;;7.55;;
72060;SDS011;59925;52.136;5.420;2024-02-14T02:13:14;11.82;;;8.10;;
72060;SDS011;59925;52.136;5.420;2024-02-14T02:15:42;11.47;;;8.13;;
72060;SDS011;59925;52.136;5.420;2024-02-14T02:18:12;15.23;;;8.73;;
72060;SDS011;59925;52.136;5.420;2024-02-14T02:20:39;12.82;;;7.97;;
72060;SDS011;59925;52.136;5.420;2024-02-14T02:23:10;12.02;;;7.38;;
72060;SDS011;59925;52.136;5.420;2024-02-14T02:25:41;11.43;;;7.30;;
72060;SDS011;59925;52.136;5.420;2024-02-14T02:28:08;11.77;;;7.30;;
72060;SDS011;59925;52.136;5.420;2024-02-14T02:30:35;11.40;;;6.70;;
72060;SDS011;59925;52.136;5.420;2024-02-14T02:33:03;9.43;;;6.82;;
72060;SDS011;59925;52.136;5.420;2024-02-14T02:35:30;10.40;;;6.90;;
72060;SDS011;59925;52.136;5.420;2024-02-14T02:37:57;10.80;;;7.72;;
72060;SDS011;59925;52.136;5.420;2024-02-14T02:40:24;10.60;;;7.10;;
72060;SDS011;59925;52.136;5.420;2024-02-14T02:42:52;11.68;;;7.75;;
72060;SDS011;59925;52.136;5.420;2024-02-14T02:45:19;9.45;;;7.15;;
72060;SDS011;59925;52.136;5.420;2024-02-14T02:47:46;12.73;;;7.00;;
72060;SDS011;59925;52.136;5.420;2024-02-14T02:50:14;11.77;;;7.93;;
72060;SDS011;59925;52.136;5.420;2024-02-14T02:52:41;11.90;;;8.07;;
72060;SDS011;59925;52.136;5.420;2024-02-14T02:55:08;10.73;;;7.07;;
72060;SDS011;59925;52.136;5.420;2024-02-14T02:57:35;12.18;;;7.57;;
72060;SDS011;59925;52.136;5.420;2024-02-14T03:00:04;11.02;;;7.85;;
72060;SDS011;59925;52.136;5.420;2024-02-14T03:02:35;11.05;;;7.90;;
72060;SDS011;59925;52.136;5.420;2024-02-14T03:05:04;13.97;;;9.10;;
72060;SDS011;59925;52.136;5.420;2024-02-14T03:07:37;13.15;;;7.80;;
72060;SDS011;59925;52.136;5.420;2024-02-14T03:10:04;9.88;;;7.13;;
72060;SDS011;59925;52.136;5.420;2024-02-14T03:12:31;11.77;;;7.30;;
72060;SDS011;59925;52.136;5.420;2024-02-14T03:14:59;11.25;;;7.30;;
72060;SDS011;59925;52.136;5.420;2024-02-14T03:17:25;8.43;;;6.43;;
72060;SDS011;59925;52.136;5.420;2024-02-14T03:19:55;10.40;;;6.40;;
72060;SDS011;59925;52.136;5.420;2024-02-14T03:22:23;9.05;;;6.50;;
72060;SDS011;59925;52.136;5.420;2024-02-14T03:24:49;9.10;;;6.75;;
72060;SDS011;59925;52.136;5.420;2024-02-14T03:27:16;13.98;;;8.23;;
72060;SDS011;59925;52.136;5.420;2024-02-14T03:29:44;10.80;;;7.30;;
72060;SDS011;59925;52.136;5.420;2024-02-14T03:32:11;13.60;;;8.13;;
72060;SDS011;59925;52.136;5.420;2024-02-14T03:34:37;11.95;;;8.10;;
72060;SDS011;59925;52.136;5.420;2024-02-14T03:37:04;16.05;;;9.15;;
72060;SDS011;59925;52.136;5.420;2024-02-14T03:39:33;13.07;;;8.05;;
72060;SDS011;59925;52.136;5.420;2024-02-14T03:42:00;17.80;;;8.30;;
72060;SDS011;59925;52.136;5.420;2024-02-14T03:44:32;15.15;;;8.73;;
72060;SDS011;59925;52.136;5.420;2024-02-14T03:46:59;18.73;;;9.05;;
72060;SDS011;59925;52.136;5.420;2024-02-14T03:49:26;15.15;;;8.88;;
72060;SDS011;59925;52.136;5.420;2024-02-14T03:51:53;15.80;;;8.65;;
72060;SDS011;59925;52.136;5.420;2024-02-14T03:54:21;17.73;;;8.70;;
72060;SDS011;59925;52.136;5.420;2024-02-14T03:56:47;15.40;;;8.35;;
72060;SDS011;59925;52.136;5.420;2024-02-14T03:59:14;15.27;;;8.18;;
72060;SDS011;59925;52.136;5.420;2024-02-14T04:01:44;19.35;;;8.60;;
72060;SDS011;59925;52.136;5.420;2024-02-14T04:04:14;14.70;;;8.35;;
72060;SDS011;59925;52.136;5.420;2024-02-14T04:06:40;15.80;;;8.27;;
72060;SDS011;59925;52.136;5.420;2024-02-14T04:09:08;17.42;;;8.60;;
72060;SDS011;59925;52.136;5.420;2024-02-14T04:11:35;15.07;;;8.57;;
72060;SDS011;59925;52.136;5.420;2024-02-14T04:14:02;20.67;;;9.48;;
72060;SDS011;59925;52.136;5.420;2024-02-14T04:16:29;15.25;;;9.00;;
72060;SDS011;59925;52.136;5.420;2024-02-14T04:18:56;22.30;;;10.07;;
72060;SDS011;59925;52.136;5.420;2024-02-14T04:21:23;19.65;;;9.13;;
72060;SDS011;59925;52.136;5.420;2024-02-14T04:23:50;19.88;;;9.48;;
72060;SDS011;59925;52.136;5.420;2024-02-14T04:26:20;20.85;;;9.50;;
72060;SDS011;59925;52.136;5.420;2024-02-14T04:28:46;20.27;;;8.65;;
72060;SDS011;59925;52.136;5.420;2024-02-14T04:31:13;20.40;;;8.50;;
72060;SDS011;59925;52.136;5.420;2024-02-14T04:33:39;19.58;;;8.07;;
72060;SDS011;59925;52.136;5.420;2024-02-14T04:36:06;20.75;;;8.93;;
72060;SDS011;59925;52.136;5.420;2024-02-14T04:38:33;23.58;;;10.02;;
72060;SDS011;59925;52.136;5.420;2024-02-14T04:40:59;19.98;;;9.10;;
72060;SDS011;59925;52.136;5.420;2024-02-14T04:43:26;18.40;;;9.40;;
72060;SDS011;59925;52.136;5.420;2024-02-14T04:45:53;25.63;;;8.82;;
72060;SDS011;59925;52.136;5.420;2024-02-14T04:48:19;22.67;;;8.05;;
72060;SDS011;59925;52.136;5.420;2024-02-14T04:50:46;20.63;;;8.82;;
72060;SDS011;59925;52.136;5.420;2024-02-14T04:53:12;24.02;;;8.70;;
72060;SDS011;59925;52.136;5.420;2024-02-14T04:55:39;17.10;;;8.43;;
72060;SDS011;59925;52.136;5.420;2024-02-14T04:58:06;24.77;;;9.90;;
72060;SDS011;59925;52.136;5.420;2024-02-14T05:00:32;20.65;;;8.93;;
72060;SDS011;59925;52.136;5.420;2024-02-14T05:02:59;18.77;;;8.88;;
72060;SDS011;59925;52.136;5.420;2024-02-14T05:05:26;19.08;;;9.45;;
72060;SDS011;59925;52.136;5.420;2024-02-14T05:07:52;21.67;;;8.80;;
72060;SDS011;59925;52.136;5.420;2024-02-14T05:10:20;18.33;;;9.23;;
72060;SDS011;59925;52.136;5.420;2024-02-14T05:12:46;18.27;;;8.65;;
72060;SDS011;59925;52.136;5.420;2024-02-14T05:15:13;21.10;;;9.48;;
72060;SDS011;59925;52.136;5.420;2024-02-14T05:17:42;16.98;;;8.85;;
72060;SDS011;59925;52.136;5.420;2024-02-14T05:20:10;16.37;;;9.70;;
72060;SDS011;59925;52.136;5.420;2024-02-14T05:22:37;21.05;;;9.73;;
72060;SDS011;59925;52.136;5.420;2024-02-14T05:25:04;19.55;;;10.70;;
72060;SDS011;59925;52.136;5.420;2024-02-14T05:27:34;22.27;;;10.70;;
72060;SDS011;59925;52.136;5.420;2024-02-14T05:30:01;26.80;;;11.60;;
72060;SDS011;59925;52.136;5.420;2024-02-14T05:32:32;20.57;;;10.17;;
72060;SDS011;59925;52.136;5.420;2024-02-14T05:35:00;23.75;;;11.02;;
72060;SDS011;59925;52.136;5.420;2024-02-14T05:37:27;24.88;;;11.48;;
72060;SDS011;59925;52.136;5.420;2024-02-14T05:39:54;22.30;;;10.10;;
72060;SDS011;59925;52.136;5.420;2024-02-14T05:42:21;22.05;;;10.68;;
72060;SDS011;59925;52.136;5.420;2024-02-14T05:44:50;20.37;;;11.13;;
72060;SDS011;59925;52.136;5.420;2024-02-14T05:47:18;21.60;;;10.32;;
72060;SDS011;59925;52.136;5.420;2024-02-14T05:49:45;22.33;;;10.40;;
72060;SDS011;59925;52.136;5.420;2024-02-14T05:52:13;21.42;;;9.93;;
72060;SDS011;59925;52.136;5.420;2024-02-14T05:54:41;17.70;;;9.90;;
72060;SDS011;59925;52.136;5.420;2024-02-14T05:57:08;15.07;;;9.27;;
72060;SDS011;59925;52.136;5.420;2024-02-14T05:59:35;19.48;;;9.43;;
72060;SDS011;59925;52.136;5.420;2024-02-14T06:02:02;19.90;;;9.73;;
72060;SDS011;59925;52.136;5.420;2024-02-14T06:04:29;17.48;;;8.45;;
72060;SDS011;59925;52.136;5.420;2024-02-14T06:06:56;14.68;;;8.80;;
72060;SDS011;59925;52.136;5.420;2024-02-14T06:09:22;14.00;;;7.60;;
72060;SDS011;59925;52.136;5.420;2024-02-14T06:11:49;14.07;;;8.07;;
72060;SDS011;59925;52.136;5.420;2024-02-14T06:14:16;13.95;;;8.70;;
72060;SDS011;59925;52.136;5.420;2024-02-14T06:16:42;13.25;;;7.95;;
72060;SDS011;59925;52.136;5.420;2024-02-14T06:19:10;14.40;;;8.18;;
72060;SDS011;59925;52.136;5.420;2024-02-14T06:21:38;15.70;;;8.77;;
72060;SDS011;59925;52.136;5.420;2024-02-14T06:24:05;12.40;;;8.02;;
72060;SDS011;59925;52.136;5.420;2024-02-14T06:26:32;12.85;;;8.38;;
72060;SDS011;59925;52.136;5.420;2024-02-14T06:28:59;15.85;;;8.50;;
72060;SDS011;59925;52.136;5.420;2024-02-14T06:31:26;16.35;;;7.60;;
72060;SDS011;59925;52.136;5.420;2024-02-14T06:33:52;16.17;;;8.00;;
72060;SDS011;59925;52.136;5.420;2024-02-14T06:36:19;13.40;;;8.23;;
72060;SDS011;59925;52.136;5.420;2024-02-14T06:38:46;12.23;;;7.57;;
72060;SDS011;59925;52.136;5.420;2024-02-14T06:41:13;12.93;;;7.68;;
72060;SDS011;59925;52.136;5.420;2024-02-14T06:43:39;15.13;;;7.05;;
72060;SDS011;59925;52.136;5.420;2024-02-14T06:46:06;12.60;;;7.53;;
72060;SDS011;59925;52.136;5.420;2024-02-14T06:48:32;13.75;;;7.07;;
72060;SDS011;59925;52.136;5.420;2024-02-14T06:51:00;11.95;;;7.35;;
72060;SDS011;59925;52.136;5.420;2024-02-14T06:53:27;16.27;;;8.30;;
72060;SDS011;59925;52.136;5.420;2024-02-14T06:55:54;13.25;;;8.68;;
72060;SDS011;59925;52.136;5.420;2024-02-14T06:58:20;16.00;;;8.60;;
72060;SDS011;59925;52.136;5.420;2024-02-14T07:00:47;13.38;;;8.65;;
72060;SDS011;59925;52.136;5.420;2024-02-14T07:03:14;13.98;;;8.85;;
72060;SDS011;59925;52.136;5.420;2024-02-14T07:05:41;17.05;;;9.82;;
72060;SDS011;59925;52.136;5.420;2024-02-14T07:08:08;18.25;;;9.73;;
72060;SDS011;59925;52.136;5.420;2024-02-14T07:10:35;19.67;;;9.47;;
72060;SDS011;59925;52.136;5.420;2024-02-14T07:13:01;21.75;;;9.70;;
72060;SDS011;59925;52.136;5.420;2024-02-14T07:15:28;16.65;;;9.45;;
72060;SDS011;59925;52.136;5.420;2024-02-14T07:17:55;19.02;;;10.18;;
72060;SDS011;59925;52.136;5.420;2024-02-14T07:20:24;17.90;;;9.98;;
72060;SDS011;59925;52.136;5.420;2024-02-14T07:22:54;19.73;;;9.60;;
72060;SDS011;59925;52.136;5.420;2024-02-14T07:25:23;19.67;;;10.88;;
72060;SDS011;59925;52.136;5.420;2024-02-14T07:27:49;20.92;;;11.18;;
72060;SDS011;59925;52.136;5.420;2024-02-14T07:30:16;19.65;;;10.27;;
72060;SDS011;59925;52.136;5.420;2024-02-14T07:32:43;19.77;;;10.48;;
72060;SDS011;59925;52.136;5.420;2024-02-14T07:35:11;20.90;;;11.20;;
72060;SDS011;59925;52.136;5.420;2024-02-14T07:37:40;20.13;;;11.00;;
72060;SDS011;59925;52.136;5.420;2024-02-14T07:40:09;20.27;;;10.50;;
72060;SDS011;59925;52.136;5.420;2024-02-14T07:42:36;22.13;;;10.80;;
72060;SDS011;59925;52.136;5.420;2024-02-14T07:45:03;19.27;;;10.20;;
72060;SDS011;59925;52.136;5.420;2024-02-14T07:47:30;17.30;;;9.67;;
72060;SDS011;59925;52.136;5.420;2024-02-14T07:49:56;22.52;;;10.68;;
72060;SDS011;59925;52.136;5.420;2024-02-14T07:52:25;19.77;;;10.15;;
72060;SDS011;59925;52.136;5.420;2024-02-14T07:54:52;17.27;;;10.70;;
72060;SDS011;59925;52.136;5.420;2024-02-14T07:57:22;20.13;;;11.30;;
72060;SDS011;59925;52.136;5.420;2024-02-14T07:59:49;20.03;;;11.53;;
72060;SDS011;59925;52.136;5.420;2024-02-14T08:02:20;21.08;;;10.68;;
72060;SDS011;59925;52.136;5.420;2024-02-14T08:04:46;19.77;;;11.18;;
72060;SDS011;59925;52.136;5.420;2024-02-14T08:07:16;20.73;;;10.95;;
72060;SDS011;59925;52.136;5.420;2024-02-14T08:09:43;21.90;;;11.13;;
72060;SDS011;59925;52.136;5.420;2024-02-14T08:12:09;25.33;;;11.97;;
72060;SDS011;59925;52.136;5.420;2024-02-14T08:14:37;19.23;;;10.40;;
72060;SDS011;59925;52.136;5.420;2024-02-14T08:17:03;17.60;;;10.10;;
72060;SDS011;59925;52.136;5.420;2024-02-14T08:19:30;19.08;;;10.38;;
72060;SDS011;59925;52.136;5.420;2024-02-14T08:21:57;17.10;;;10.30;;
72060;SDS011;59925;52.136;5.420;2024-02-14T08:24:25;19.23;;;10.43;;
72060;SDS011;59925;52.136;5.420;2024-02-14T08:26:53;17.70;;;10.27;;
72060;SDS011;59925;52.136;5.420;2024-02-14T08:29:21;21.05;;;10.25;;
72060;SDS011;59925;52.136;5.420;2024-02-14T08:31:47;17.20;;;9.98;;
72060;SDS011;59925;52.136;5.420;2024-02-14T08:34:14;18.50;;;9.43;;
72060;SDS011;59925;52.136;5.420;2024-02-14T08:36:42;21.40;;;10.57;;
72060;SDS011;59925;52.136;5.420;2024-02-14T08:39:09;19.20;;;10.50;;
72060;SDS011;59925;52.136;5.420;2024-02-14T08:41:37;18.27;;;10.05;;
72060;SDS011;59925;52.136;5.420;2024-02-14T08:44:04;16.35;;;10.55;;
72060;SDS011;59925;52.136;5.420;2024-02-14T08:46:31;16.63;;;9.65;;
72060;SDS011;59925;52.136;5.420;2024-02-14T08:48:59;18.07;;;10.30;;
72060;SDS011;59925;52.136;5.420;2024-02-14T08:51:28;19.05;;;10.15;;
72060;SDS011;59925;52.136;5.420;2024-02-14T08:53:55;19.58;;;9.15;;
72060;SDS011;59925;52.136;5.420;2024-02-14T08:56:25;22.25;;;11.00;;
72060;SDS011;59925;52.136;5.420;2024-02-14T08:58:51;17.70;;;8.55;;
72060;SDS011;59925;52.136;5.420;2024-02-14T09:01:18;20.73;;;9.13;;
72060;SDS011;59925;52.136;5.420;2024-02-14T09:03:46;17.85;;;9.30;;
72060;SDS011;59925;52.136;5.420;2024-02-14T09:06:16;15.38;;;8.30;;
72060;SDS011;59925;52.136;5.420;2024-02-14T09:08:45;13.70;;;7.80;;
72060;SDS011;59925;52.136;5.420;2024-02-14T09:11:12;17.25;;;8.77;;
72060;SDS011;59925;52.136;5.420;2024-02-14T09:13:39;17.17;;;9.10;;
72060;SDS011;59925;52.136;5.420;2024-02-14T09:16:09;17.08;;;8.68;;
72060;SDS011;59925;52.136;5.420;2024-02-14T09:18:37;13.93;;;8.52;;
72060;SDS011;59925;52.136;5.420;2024-02-14T09:21:05;13.98;;;9.18;;
72060;SDS011;59925;52.136;5.420;2024-02-14T09:23:32;15.20;;;9.38;;
72060;SDS011;59925;52.136;5.420;2024-02-14T09:26:00;19.57;;;10.50;;
72060;SDS011;59925;52.136;5.420;2024-02-14T09:28:28;17.80;;;9.95;;
72060;SDS011;59925;52.136;5.420;2024-02-14T09:30:54;18.95;;;10.85;;
72060;SDS011;59925;52.136;5.420;2024-02-14T09:33:21;19.00;;;10.18;;
72060;SDS011;59925;52.136;5.420;2024-02-14T09:35:48;16.02;;;9.98;;
72060;SDS011;59925;52.136;5.420;2024-02-14T09:38:15;18.90;;;10.27;;
72060;SDS011;59925;52.136;5.420;2024-02-14T09:40:41;17.73;;;10.52;;
72060;SDS011;59925;52.136;5.420;2024-02-14T09:46:07;17.38;;;9.75;;
72060;SDS011;59925;52.136;5.420;2024-02-14T09:48:35;16.48;;;10.00;;
72060;SDS011;59925;52.136;5.420;2024-02-14T09:51:05;15.23;;;8.80;;
72060;SDS011;59925;52.136;5.420;2024-02-14T09:53:33;13.80;;;8.90;;
72060;SDS011;59925;52.136;5.420;2024-02-14T09:56:01;14.68;;;8.70;;
72060;SDS011;59925;52.136;5.420;2024-02-14T09:58:28;20.27;;;9.93;;
72060;SDS011;59925;52.136;5.420;2024-02-14T10:01:00;17.55;;;11.23;;
72060;SDS011;59925;52.136;5.420;2024-02-14T10:03:26;21.53;;;12.23;;
72060;SDS011;59925;52.136;5.420;2024-02-14T10:05:54;23.08;;;13.27;;
72060;SDS011;59925;52.136;5.420;2024-02-14T10:08:21;21.05;;;12.77;;
72060;SDS011;59925;52.136;5.420;2024-02-14T10:10:49;24.02;;;12.65;;
72060;SDS011;59925;52.136;5.420;2024-02-14T10:13:21;22.95;;;12.75;;
72060;SDS011;59925;52.136;5.420;2024-02-14T10:15:48;22.90;;;13.10;;
72060;SDS011;59925;52.136;5.420;2024-02-14T10:18:15;22.92;;;12.73;;
72060;SDS011;59925;52.136;5.420;2024-02-14T10:20:53;20.73;;;12.30;;
72060;SDS011;59925;52.136;5.420;2024-02-14T10:23:20;23.88;;;12.82;;
72060;SDS011;59925;52.136;5.420;2024-02-14T10:25:48;22.75;;;11.75;;
72060;SDS011;59925;52.136;5.420;2024-02-14T10:28:16;23.10;;;12.17;;
72060;SDS011;59925;52.136;5.420;2024-02-14T10:30:45;22.55;;;11.73;;
72060;SDS011;59925;52.136;5.420;2024-02-14T10:33:12;22.30;;;12.00;;
72060;SDS011;59925;52.136;5.420;2024-02-14T10:35:50;20.88;;;11.70;;
72060;SDS011;59925;52.136;5.420;2024-02-14T10:38:20;21.08;;;11.43;;
72060;SDS011;59925;52.136;5.420;2024-02-14T10:40:48;21.47;;;11.60;;
72060;SDS011;59925;52.136;5.420;2024-02-14T10:43:17;20.48;;;10.73;;
72060;SDS011;59925;52.136;5.420;2024-02-14T10:45:44;19.10;;;10.55;;
72060;SDS011;59925;52.136;5.420;2024-02-14T10:48:12;16.90;;;10.35;;
72060;SDS011;59925;52.136;5.420;2024-02-14T10:50:41;16.70;;;10.50;;
72060;SDS011;59925;52.136;5.420;2024-02-14T10:55:40;21.38;;;10.57;;
72060;SDS011;59925;52.136;5.420;2024-02-14T10:58:08;17.42;;;10.07;;
72060;SDS011;59925;52.136;5.420;2024-02-14T11:00:37;19.17;;;11.25;;
72060;SDS011;59925;52.136;5.420;2024-02-14T11:03:05;13.88;;;10.02;;
72060;SDS011;59925;52.136;5.420;2024-02-14T11:05:42;16.83;;;11.13;;
72060;SDS011;59925;52.136;5.420;2024-02-14T11:08:13;17.85;;;11.20;;
72060;SDS011;59925;52.136;5.420;2024-02-14T11:10:41;17.80;;;9.75;;
72060;SDS011;59925;52.136;5.420;2024-02-14T11:13:14;19.20;;;9.60;;
72060;SDS011;59925;52.136;5.420;2024-02-14T11:15:44;14.25;;;9.57;;
72060;SDS011;59925;52.136;5.420;2024-02-14T11:18:11;14.47;;;9.33;;
72060;SDS011;59925;52.136;5.420;2024-02-14T11:20:38;14.13;;;8.65;;
72060;SDS011;59925;52.136;5.420;2024-02-14T11:23:07;20.55;;;9.55;;
72060;SDS011;59925;52.136;5.420;2024-02-14T11:25:38;14.60;;;8.23;;
72060;SDS011;59925;52.136;5.420;2024-02-14T11:28:13;13.27;;;8.70;;
72060;SDS011;59925;52.136;5.420;2024-02-14T11:30:42;12.70;;;8.53;;
72060;SDS011;59925;52.136;5.420;2024-02-14T11:33:22;13.55;;;7.72;;
72060;SDS011;59925;52.136;5.420;2024-02-14T11:35:51;12.35;;;7.95;;
72060;SDS011;59925;52.136;5.420;2024-02-14T11:38:20;13.88;;;8.73;;
72060;SDS011;59925;52.136;5.420;2024-02-14T11:40:48;12.32;;;8.23;;
72060;SDS011;59925;52.136;5.420;2024-02-14T11:43:18;15.83;;;8.83;;
72060;SDS011;59925;52.136;5.420;2024-02-14T11:45:49;14.75;;;8.77;;
72060;SDS011;59925;52.136;5.420;2024-02-14T11:48:16;19.50;;;9.93;;
72060;SDS011;59925;52.136;5.420;2024-02-14T11:50:45;16.00;;;9.80;;
72060;SDS011;59925;52.136;5.420;2024-02-14T11:53:12;19.42;;;11.98;;
72060;SDS011;59925;52.136;5.420;2024-02-14T11:55:42;16.87;;;9.77;;
72060;SDS011;59925;52.136;5.420;2024-02-14T11:58:09;16.20;;;9.82;;
72060;SDS011;59925;52.136;5.420;2024-02-14T12:00:40;18.05;;;10.55;;
72060;SDS011;59925;52.136;5.420;2024-02-14T12:03:09;19.23;;;9.82;;
72060;SDS011;59925;52.136;5.420;2024-02-14T12:05:38;16.90;;;9.57;;
72060;SDS011;59925;52.136;5.420;2024-02-14T12:08:07;14.07;;;9.17;;
72060;SDS011;59925;52.136;5.420;2024-02-14T12:10:36;16.33;;;9.43;;
72060;SDS011;59925;52.136;5.420;2024-02-14T12:13:08;14.35;;;8.70;;
72060;SDS011;59925;52.136;5.420;2024-02-14T12:15:42;16.73;;;8.25;;
72060;SDS011;59925;52.136;5.420;2024-02-14T12:18:11;15.70;;;8.82;;
72060;SDS011;59925;52.136;5.420;2024-02-14T12:20:38;14.07;;;8.90;;
72060;SDS011;59925;52.136;5.420;2024-02-14T12:23:05;16.67;;;9.45;;
72060;SDS011;59925;52.136;5.420;2024-02-14T12:25:32;15.45;;;8.68;;
72060;SDS011;59925;52.136;5.420;2024-02-14T12:27:59;12.00;;;7.82;;
72060;SDS011;59925;52.136;5.420;2024-02-14T12:30:42;12.88;;;8.98;;
72060;SDS011;59925;52.136;5.420;2024-02-14T12:33:13;14.67;;;8.00;;
72060;SDS011;59925;52.136;5.420;2024-02-14T12:35:44;12.63;;;8.23;;
72060;SDS011;59925;52.136;5.420;2024-02-14T12:38:13;13.30;;;7.18;;
72060;SDS011;59925;52.136;5.420;2024-02-14T12:40:41;14.68;;;7.85;;
72060;SDS011;59925;52.136;5.420;2024-02-14T12:43:11;11.00;;;6.72;;
72060;SDS011;59925;52.136;5.420;2024-02-14T12:45:39;12.03;;;7.43;;
72060;SDS011;59925;52.136;5.420;2024-02-14T12:48:07;10.60;;;6.20;;
72060;SDS011;59925;52.136;5.420;2024-02-14T12:50:35;10.95;;;6.25;;
72060;SDS011;59925;52.136;5.420;2024-02-14T12:53:06;10.45;;;5.80;;
72060;SDS011;59925;52.136;5.420;2024-02-14T12:55:34;9.98;;;6.05;;
72060;SDS011;59925;52.136;5.420;2024-02-14T12:58:01;7.73;;;4.77;;
72060;SDS011;59925;52.136;5.420;2024-02-14T13:00:28;9.82;;;5.78;;
72060;SDS011;59925;52.136;5.420;2024-02-14T13:02:55;8.77;;;4.95;;
72060;SDS011;59925;52.136;5.420;2024-02-14T13:05:22;8.25;;;4.65;;
72060;SDS011;59925;52.136;5.420;2024-02-14T13:07:49;5.55;;;4.00;;
72060;SDS011;59925;52.136;5.420;2024-02-14T13:10:17;6.87;;;3.40;;
72060;SDS011;59925;52.136;5.420;2024-02-14T13:12:44;5.00;;;3.25;;
72060;SDS011;59925;52.136;5.420;2024-02-14T13:15:11;5.85;;;3.60;;
72060;SDS011;59925;52.136;5.420;2024-02-14T13:17:38;8.70;;;4.32;;
72060;SDS011;59925;52.136;5.420;2024-02-14T13:20:05;6.32;;;3.63;;
72060;SDS011;59925;52.136;5.420;2024-02-14T13:22:32;6.87;;;4.30;;
72060;SDS011;59925;52.136;5.420;2024-02-14T13:24:59;8.07;;;4.65;;
72060;SDS011;59925;52.136;5.420;2024-02-14T13:27:29;7.55;;;4.47;;
72060;SDS011;59925;52.136;5.420;2024-02-14T13:29:56;6.07;;;4.53;;
72060;SDS011;59925;52.136;5.420;2024-02-14T13:32:22;6.28;;;4.15;;
72060;SDS011;59925;52.136;5.420;2024-02-14T13:34:49;8.43;;;4.37;;
72060;SDS011;59925;52.136;5.420;2024-02-14T13:37:16;7.20;;;4.03;;
72060;SDS011;59925;52.136;5.420;2024-02-14T13:39:42;5.72;;;4.18;;
72060;SDS011;59925;52.136;5.420;2024-02-14T13:42:10;6.20;;;3.83;;
72060;SDS011;59925;52.136;5.420;2024-02-14T13:44:36;6.00;;;3.97;;
72060;SDS011;59925;52.136;5.420;2024-02-14T13:47:03;7.03;;;4.73;;
72060;SDS011;59925;52.136;5.420;2024-02-14T13:49:30;7.25;;;4.35;;
72060;SDS011;59925;52.136;5.420;2024-02-14T13:51:57;6.43;;;3.92;;
72060;SDS011;59925;52.136;5.420;2024-02-14T13:54:24;6.20;;;4.38;;
72060;SDS011;59925;52.136;5.420;2024-02-14T13:56:51;6.90;;;4.38;;
72060;SDS011;59925;52.136;5.420;2024-02-14T13:59:18;5.53;;;4.03;;
72060;SDS011;59925;52.136;5.420;2024-02-14T14:01:45;8.20;;;4.82;;
72060;SDS011;59925;52.136;5.420;2024-02-14T14:04:14;5.65;;;4.15;;
72060;SDS011;59925;52.136;5.420;2024-02-14T14:06:41;5.95;;;3.85;;
72060;SDS011;59925;52.136;5.420;2024-02-14T14:09:08;6.43;;;4.10;;
72060;SDS011;59925;52.136;5.420;2024-02-14T14:11:36;6.63;;;4.73;;
72060;SDS011;59925;52.136;5.420;2024-02-14T14:14:04;6.93;;;4.45;;
72060;SDS011;59925;52.136;5.420;2024-02-14T14:16:31;8.40;;;5.35;;
72060;SDS011;59925;52.136;5.420;2024-02-14T14:19:01;9.57;;;5.32;;
72060;SDS011;59925;52.136;5.420;2024-02-14T14:21:29;8.25;;;5.22;;
72060;SDS011;59925;52.136;5.420;2024-02-14T14:23:56;8.60;;;6.33;;
72060;SDS011;59925;52.136;5.420;2024-02-14T14:26:22;7.43;;;5.22;;
72060;SDS011;59925;52.136;5.420;2024-02-14T14:28:49;8.70;;;5.43;;
72060;SDS011;59925;52.136;5.420;2024-02-14T14:31:16;8.00;;;5.45;;
72060;SDS011;59925;52.136;5.420;2024-02-14T14:33:42;8.63;;;5.70;;
72060;SDS011;59925;52.136;5.420;2024-02-14T14:36:09;8.23;;;6.13;;
72060;SDS011;59925;52.136;5.420;2024-02-14T14:38:36;10.98;;;6.47;;
72060;SDS011;59925;52.136;5.420;2024-02-14T14:41:04;10.02;;;6.15;;
72060;SDS011;59925;52.136;5.420;2024-02-14T14:43:31;7.78;;;5.78;;